Weather History for Fremont, NE

Change the Weather History Date:

Tuesday, February 26, 2013

  Actual Average Record
Temperature  
Mean Temperature 28 °F -  
Max Temperature 31 °F 46 °F 67 °F (1976)
Min Temperature 24 °F 24 °F -1 °F (1993)
Degree Days  
Heating Degree Days 38    
Moisture  
Dew Point 26 °F    
Average Humidity 96    
Maximum Humidity 100    
Minimum Humidity 90    
Precipitation  
Precipitation 0.00 in - - ()
Sea Level Pressure  
Sea Level Pressure 29.88 in    
Wind  
Wind Speed 9 mph (NNW)    
Max Wind Speed 15 mph    
Max Gust Speed 20 mph    
Visibility 3 miles    
Events      
Averages and records for this station are not official NWS values.
T = Trace of Precipitation, MM = Missing Value Source: NWS Daily Summary

Daily Weather History Graph

Daily Weather History Graph

Search for Another Location

Airport:

Trip Planner

Search our weather history database for the weather conditions in past years. The results will help you decide how hot, cold, wet, or windy it might be!

Date:

Astronomy

Feb. 26, 2013 Rise Set
Actual Time 7:04 AM CST 6:13 PM CST
Civil Twilight 6:37 AM CST 6:41 PM CST
Nautical Twilight 6:04 AM CST 7:13 PM CST
Astronomical Twilight 5:32 AM CST 7:45 PM CST
Moon 7:33 PM CST (2/26) 7:06 AM CST (2/26)
Length of Visible Light 12h 04m
Length of Day
11h 08m
Full, 99% of the Moon is Illuminated
Feb 26
Full
Mar 4
Last Quarter
Mar 11
New
Mar 19
First Quarter
Mar 27
Full

Hourly Weather History & Observations

Time (CST) Temp. Windchill Dew Point Humidity Pressure Visibility Wind Dir Wind Speed Gust Speed Precip Events Conditions
12:15 AM 26.6 °F 21.2 °F 26.6 °F 100% 29.93 in 4.0 mi North 4.6 mph - N/A   Overcast
12:35 AM 26.1 °F 17.6 °F 26.1 °F 100% 29.92 in 3.0 mi NNE 8.1 mph - N/A   Overcast
12:55 AM 25.9 °F 17.4 °F 25.9 °F 100% 29.92 in 3.0 mi NNE 8.1 mph - N/A   Overcast
1:15 AM 25.7 °F 17.1 °F 25.7 °F 100% 29.91 in 3.0 mi North 8.1 mph - N/A   Overcast
1:35 AM 25.2 °F 15.7 °F 25.2 °F 100% 29.90 in 3.0 mi North 9.2 mph - N/A   Overcast
1:55 AM 25.2 °F 16.5 °F 25.2 °F 100% 29.90 in 2.5 mi NNE 8.1 mph - N/A   Overcast
2:15 AM 25.2 °F 17.3 °F 25.2 °F 100% 29.90 in 1.8 mi North 6.9 mph - N/A   Overcast
2:35 AM 24.8 °F 17.9 °F 24.8 °F 100% 29.90 in 1.8 mi North 5.8 mph - N/A   Overcast
2:55 AM 24.8 °F 17.9 °F 24.8 °F 100% 29.89 in 2.5 mi North 5.8 mph - N/A   Overcast
3:15 AM 24.4 °F 14.9 °F 24.4 °F 100% 29.88 in 2.0 mi North 9.2 mph - N/A   Overcast
3:35 AM 24.3 °F 14.6 °F 24.3 °F 100% 29.88 in 1.8 mi North 9.2 mph 16.1 mph N/A   Overcast
3:55 AM 24.3 °F 17.3 °F 24.3 °F 100% 29.89 in 2.5 mi North 5.8 mph - N/A   Overcast
4:15 AM 24.3 °F 15.4 °F 24.3 °F 100% 29.89 in 3.0 mi North 8.1 mph - N/A   Overcast
4:35 AM 24.3 °F 17.3 °F 24.3 °F 100% 29.87 in 2.0 mi North 5.8 mph - N/A   Overcast
4:55 AM 24.3 °F 13.3 °F 24.3 °F 100% 29.88 in 2.5 mi North 11.5 mph - N/A   Overcast
5:15 AM 24.4 °F 14.2 °F 24.4 °F 100% 29.88 in 2.0 mi North 10.4 mph - N/A   Overcast
5:35 AM 24.8 °F 16.1 °F 24.8 °F 100% 29.88 in 1.8 mi North 8.1 mph - N/A   Overcast
5:55 AM 25.2 °F 16.5 °F 25.2 °F 100% 29.87 in 2.0 mi North 8.1 mph - N/A   Overcast
6:15 AM 25.3 °F 17.6 °F 25.3 °F 100% 29.87 in 2.0 mi North 6.9 mph - N/A   Overcast
6:35 AM 25.5 °F 18.7 °F 25.5 °F 100% 29.86 in 2.0 mi North 5.8 mph - N/A   Overcast
6:55 AM 25.5 °F 16.9 °F 25.5 °F 100% 29.86 in 2.0 mi North 8.1 mph - N/A   Overcast
7:15 AM 25.5 °F 16.9 °F 25.5 °F 100% 29.86 in 2.5 mi NNW 8.1 mph - N/A   Overcast
7:35 AM 25.3 °F 16.7 °F 25.3 °F 100% 29.86 in 2.5 mi North 8.1 mph - N/A   Overcast
7:55 AM 25.2 °F 15.7 °F 25.2 °F 100% 29.87 in 1.5 mi NNW 9.2 mph - N/A   Overcast
8:15 AM 25.2 °F 18.3 °F 25.2 °F 100% 29.88 in 1.8 mi North 5.8 mph - N/A   Overcast
8:35 AM 24.8 °F 16.1 °F 24.8 °F 100% 29.89 in 1.8 mi North 8.1 mph - N/A   Overcast
8:55 AM 24.8 °F 16.1 °F 24.8 °F 100% 29.88 in 1.8 mi North 8.1 mph - N/A   Overcast
9:15 AM 25.0 °F 15.5 °F 25.0 °F 100% 29.88 in 1.5 mi North 9.2 mph - N/A   Overcast
9:35 AM 24.8 °F 16.9 °F 24.8 °F 100% 29.88 in 1.5 mi NNW 6.9 mph - N/A   Overcast
9:55 AM 25.3 °F 15.3 °F 25.3 °F 100% 29.89 in 1.5 mi NNW 10.4 mph - N/A   Overcast
10:15 AM 25.3 °F 14.7 °F 25.3 °F 100% 29.88 in 1.2 mi NNW 11.5 mph 17.3 mph N/A   Overcast
10:35 AM 25.7 °F 16.4 °F 25.3 °F 99% 29.88 in 1.5 mi North 9.2 mph 17.3 mph N/A   Overcast
10:55 AM 25.7 °F 16.4 °F 25.0 °F 97% 29.87 in 1.8 mi North 9.2 mph - N/A   Overcast
11:15 AM 26.4 °F 17.3 °F 25.3 °F 96% 29.87 in 2.0 mi NNW 9.2 mph - N/A   Overcast
11:35 AM 27.0 °F 17.3 °F 25.7 °F 95% 29.87 in 2.0 mi NNW 10.4 mph 18.4 mph N/A   Overcast
11:55 AM 27.5 °F 18.0 °F 26.2 °F 95% 29.87 in 2.0 mi NNW 10.4 mph 16.1 mph N/A   Overcast
12:15 PM 28.2 °F 20.2 °F 26.6 °F 94% 29.86 in 2.0 mi North 8.1 mph 17.3 mph N/A   Overcast
12:35 PM 29.1 °F 18.4 °F 27.0 °F 92% 29.85 in 2.5 mi NNW 13.8 mph - N/A   Overcast
12:55 PM 29.7 °F 21.3 °F 27.5 °F 92% 29.84 in 2.5 mi North 9.2 mph - N/A   Overcast
1:15 PM 30.2 °F 21.3 °F 27.7 °F 90% 29.83 in 2.5 mi NNW 10.4 mph 16.1 mph N/A   Overcast
1:35 PM 30.2 °F 22.6 °F 27.7 °F 90% 29.83 in 2.5 mi North 8.1 mph - N/A   Overcast
1:55 PM 30.2 °F 20.8 °F 28.0 °F 92% 29.82 in 2.5 mi North 11.5 mph 16.1 mph N/A   Overcast
2:15 PM 30.6 °F 21.2 °F 28.2 °F 91% 29.81 in 2.5 mi NNW 11.5 mph 17.3 mph N/A   Overcast
2:35 PM 31.1 °F 21.4 °F 28.4 °F 90% 29.81 in 2.5 mi North 12.7 mph 16.1 mph N/A   Mostly Cloudy
2:55 PM 31.1 °F 22.4 °F 28.8 °F 91% 29.81 in 3.0 mi NNW 10.4 mph 17.3 mph N/A   Mostly Cloudy
3:15 PM 31.1 °F 21.9 °F 28.9 °F 92% 29.82 in 2.5 mi NNW 11.5 mph 19.6 mph N/A   Overcast
3:35 PM 30.9 °F 21.2 °F 28.8 °F 92% 29.82 in 2.5 mi NNW 12.7 mph 18.4 mph N/A   Overcast
3:55 PM 31.1 °F 21.4 °F 28.9 °F 92% 29.83 in 2.5 mi NNW 12.7 mph 16.1 mph N/A   Overcast
4:15 PM 31.3 °F 21.6 °F 29.1 °F 92% 29.84 in 2.5 mi NNW 12.7 mph 17.3 mph N/A   Overcast
4:35 PM 31.1 °F 21.9 °F 28.8 °F 91% 29.84 in 3.0 mi NNW 11.5 mph 16.1 mph N/A   Overcast
4:55 PM 31.1 °F 20.5 °F 29.1 °F 92% 29.84 in 3.0 mi NW 15.0 mph 18.4 mph N/A   Overcast
5:15 PM 30.9 °F 20.7 °F 28.9 °F 92% 29.84 in 3.0 mi NW 13.8 mph - N/A   Overcast
5:35 PM 30.7 °F 21.4 °F 28.8 °F 92% 29.86 in 3.0 mi NW 11.5 mph 17.3 mph N/A   Overcast
5:55 PM 30.2 °F 20.2 °F 28.6 °F 94% 29.86 in 2.5 mi NW 12.7 mph - N/A   Overcast
6:15 PM 30.2 °F 19.8 °F 28.6 °F 94% 29.87 in 4.0 mi NW 13.8 mph - N/A   Overcast
6:35 PM 30.2 °F 20.2 °F 28.4 °F 93% 29.88 in 4.0 mi NNW 12.7 mph - N/A   Overcast
6:55 PM 30.2 °F 19.8 °F 28.4 °F 93% 29.88 in 4.0 mi NNW 13.8 mph - N/A   Mostly Cloudy
7:15 PM 30.2 °F 20.2 °F 28.4 °F 93% 29.89 in 4.0 mi NNW 12.7 mph 18.4 mph N/A   Mostly Cloudy
7:35 PM 30.0 °F 20.5 °F 28.2 °F 93% 29.90 in 4.0 mi NNW 11.5 mph 17.3 mph N/A   Mostly Cloudy
7:55 PM 30.0 °F 20.5 °F 28.2 °F 93% 29.90 in 4.0 mi NNW 11.5 mph - N/A   Mostly Cloudy
8:15 PM 29.8 °F 20.3 °F 28.2 °F 94% 29.90 in 4.0 mi NNW 11.5 mph 17.3 mph N/A   Mostly Cloudy
8:35 PM 29.7 °F 20.7 °F 28.0 °F 94% 29.91 in 4.0 mi NW 10.4 mph - N/A   Mostly Cloudy
8:55 PM 28.9 °F 20.4 °F 27.5 °F 94% 29.92 in 4.0 mi NW 9.2 mph - N/A   Overcast
9:15 PM 28.6 °F 19.3 °F 27.1 °F 94% 29.92 in 4.0 mi NNW 10.4 mph - N/A   Overcast
9:35 PM 28.2 °F 18.3 °F 26.6 °F 94% 29.92 in 4.0 mi NNW 11.5 mph - N/A   Overcast
9:55 PM 28.0 °F 18.6 °F 26.6 °F 94% 29.92 in 4.0 mi NNW 10.4 mph - N/A   Overcast
10:15 PM 28.0 °F 18.1 °F 26.6 °F 94% 29.93 in 4.0 mi NNW 11.5 mph 17.3 mph N/A   Overcast
10:55 PM 27.5 °F 16.8 °F 26.2 °F 95% 29.93 in 4.0 mi NNW 12.7 mph - N/A   Mostly Cloudy
11:15 PM 27.5 °F 16.8 °F 26.1 °F 94% 29.93 in 4.0 mi NNW 12.7 mph - N/A   Mostly Cloudy
11:35 PM 27.5 °F 16.8 °F 26.1 °F 94% 29.94 in 4.0 mi NW 12.7 mph 17.3 mph N/A   Overcast
11:55 PM 27.5 °F 16.3 °F 25.9 °F 94% 29.93 in 5.0 mi NW 13.8 mph - N/A   Overcast